createdAt,value
2023-03-29T00:01:11.849Z,63.96
2023-03-29T00:03:25.105Z,63.93
2023-03-29T00:05:23.115Z,64.04
2023-03-29T00:07:16.083Z,63.80
2023-03-29T00:09:10.117Z,63.45
2023-03-29T00:11:03.372Z,63.62
2023-03-29T00:12:56.566Z,63.74
2023-03-29T00:14:49.417Z,64.10
2023-03-29T00:16:44.815Z,64.18
2023-03-29T00:18:37.968Z,64.14
2023-03-29T00:20:30.918Z,64.16
2023-03-29T00:22:24.039Z,64.16
2023-03-29T00:24:17.017Z,64.10
2023-03-29T00:26:09.813Z,64.18
2023-03-29T00:28:02.711Z,64.31
2023-03-29T00:29:56.582Z,64.26
2023-03-29T00:31:54.423Z,64.27
2023-03-29T00:33:47.601Z,64.30
2023-03-29T00:35:40.854Z,64.29
2023-03-29T00:37:34.055Z,64.38
2023-03-29T00:39:28.058Z,64.14
2023-03-29T00:41:21.655Z,64.25
2023-03-29T00:43:16.032Z,64.51
2023-03-29T00:45:12.049Z,64.71
2023-03-29T00:47:04.989Z,65.26
2023-03-29T00:49:05.924Z,65.52
2023-03-29T00:51:09.835Z,65.58
2023-03-29T00:53:22.131Z,65.78
2023-03-29T00:55:21.733Z,65.63
2023-03-29T00:57:18.101Z,65.20
2023-03-29T00:59:18.898Z,65.18
2023-03-29T01:01:17.543Z,65.12
2023-03-29T01:03:24.877Z,64.97
2023-03-29T01:05:34.526Z,65.13
2023-03-29T01:07:35.420Z,65.14
2023-03-29T01:09:31.223Z,65.29
2023-03-29T01:11:31.965Z,65.38
2023-03-29T01:14:00.258Z,65.48
2023-03-29T01:15:56.610Z,66.07
2023-03-29T01:17:54.036Z,66.14
2023-03-29T01:19:58.310Z,66.34
2023-03-29T01:22:16.193Z,66.41
2023-03-29T01:24:38.250Z,66.63
2023-03-29T01:26:51.245Z,66.95
2023-03-29T01:28:53.260Z,67.27
2023-03-29T01:30:56.705Z,67.56
2023-03-29T01:32:57.204Z,67.55
2023-03-29T01:34:57.720Z,67.44
2023-03-29T01:37:26.692Z,67.51
2023-03-29T01:39:22.143Z,67.27
2023-03-29T01:41:15.915Z,66.92
2023-03-29T01:43:21.914Z,66.86
2023-03-29T01:45:24.654Z,66.93
2023-03-29T01:47:26.320Z,66.84
2023-03-29T01:49:29.283Z,66.77
2023-03-29T01:51:29.445Z,66.89
2023-03-29T01:53:41.495Z,66.91
2023-03-29T01:55:39.860Z,66.80
2023-03-29T01:57:34.662Z,66.84
2023-03-29T01:59:32.453Z,66.82
2023-03-29T02:01:30.635Z,66.83
2023-03-29T02:03:31.062Z,66.85
2023-03-29T02:05:26.612Z,66.41
2023-03-29T02:07:30.635Z,66.52
2023-03-29T02:09:23.990Z,66.49
2023-03-29T02:11:17.552Z,66.67
2023-03-29T02:13:10.604Z,66.55
2023-03-29T02:15:07.249Z,66.64
2023-03-29T02:17:24.365Z,66.61
2023-03-29T02:19:18.836Z,66.53
2023-03-29T02:21:21.388Z,66.40
2023-03-29T02:23:24.495Z,66.37
2023-03-29T02:25:18.711Z,66.57
2023-03-29T02:27:12.441Z,66.51
2023-03-29T02:29:07.032Z,66.43
2023-03-29T02:31:12.282Z,66.38
2023-03-29T02:33:14.120Z,66.42
2023-03-29T02:35:14.372Z,66.46
2023-03-29T02:37:13.060Z,66.21
2023-03-29T02:39:08.303Z,66.30
2023-03-29T02:41:02.354Z,66.42
2023-03-29T02:42:57.748Z,66.27
2023-03-29T02:44:54.630Z,66.10
2023-03-29T02:46:51.010Z,66.30
2023-03-29T02:48:48.635Z,66.51
2023-03-29T02:50:45.572Z,66.66
2023-03-29T02:52:46.206Z,66.51
2023-03-29T02:54:43.440Z,66.77
2023-03-29T02:56:48.463Z,66.93
2023-03-29T02:58:41.533Z,66.99
2023-03-29T03:00:38.321Z,66.98
2023-03-29T03:02:31.464Z,67.48
2023-03-29T03:04:25.715Z,67.67
2023-03-29T03:06:18.614Z,68.03
2023-03-29T03:08:11.607Z,68.20
2023-03-29T03:10:05.175Z,68.25
2023-03-29T03:11:58.063Z,68.22
2023-03-29T03:13:51.880Z,68.28
2023-03-29T03:15:48.959Z,68.32
2023-03-29T03:17:42.183Z,68.22
2023-03-29T03:19:35.035Z,68.18
2023-03-29T03:21:28.407Z,68.14
2023-03-29T03:23:21.428Z,67.91
2023-03-29T03:25:16.926Z,68.00
2023-03-29T03:27:09.733Z,67.85
2023-03-29T03:29:02.945Z,67.85
2023-03-29T03:31:22.678Z,67.84
2023-03-29T03:33:35.012Z,68.23
2023-03-29T03:35:48.106Z,68.16
2023-03-29T03:37:42.218Z,68.12
2023-03-29T03:39:35.368Z,68.10
2023-03-29T03:41:28.925Z,67.99
2023-03-29T03:43:22.180Z,68.26
2023-03-29T03:45:15.643Z,68.69
2023-03-29T03:47:17.497Z,68.69
2023-03-29T03:49:10.548Z,68.89
2023-03-29T03:51:06.158Z,68.81
2023-03-29T03:52:59.922Z,68.83
2023-03-29T03:54:53.324Z,69.02
2023-03-29T03:57:01.243Z,68.94
2023-03-29T03:59:05.506Z,69.07
2023-03-29T04:01:08.988Z,69.33
2023-03-29T04:03:06.241Z,69.47
2023-03-29T04:05:03.795Z,69.67
2023-03-29T04:07:04.129Z,69.92
2023-03-29T04:09:02.906Z,70.19
2023-03-29T04:11:02.899Z,70.52
2023-03-29T04:13:02.528Z,70.38
2023-03-29T04:14:56.186Z,70.73
2023-03-29T04:16:50.980Z,71.36
2023-03-29T04:19:04.097Z,71.15
2023-03-29T04:20:57.147Z,71.15
2023-03-29T04:22:51.325Z,71.10
2023-03-29T04:24:45.097Z,71.07
2023-03-29T04:27:04.153Z,70.59
2023-03-29T04:28:57.308Z,70.49
2023-03-29T04:31:12.520Z,70.30
2023-03-29T04:33:34.516Z,70.13
2023-03-29T04:35:27.862Z,70.16
2023-03-29T04:37:22.142Z,70.10
2023-03-29T04:39:18.173Z,70.40
2023-03-29T04:41:13.677Z,70.23
2023-03-29T04:43:23.746Z,70.39
2023-03-29T04:45:31.529Z,70.58
2023-03-29T04:47:32.960Z,70.67
2023-03-29T04:49:36.364Z,71.11
2023-03-29T04:51:33.310Z,71.06
2023-03-29T04:53:26.458Z,71.18
2023-03-29T04:55:19.918Z,71.43
2023-03-29T04:57:18.867Z,71.83
2023-03-29T04:59:24.757Z,71.40
2023-03-29T05:01:18.196Z,71.11
2023-03-29T05:03:18.739Z,71.23
2023-03-29T05:05:22.966Z,71.10
2023-03-29T05:07:18.050Z,70.91
2023-03-29T05:09:11.022Z,71.15
2023-03-29T05:11:15.430Z,71.08
2023-03-29T05:13:08.672Z,70.88
2023-03-29T05:15:01.522Z,70.99
2023-03-29T05:16:54.568Z,71.00
2023-03-29T05:18:47.418Z,70.97
2023-03-29T05:20:40.780Z,71.08
2023-03-29T05:22:36.485Z,71.15
2023-03-29T05:24:29.321Z,71.09
2023-03-29T05:26:29.958Z,71.20
2023-03-29T05:28:23.534Z,71.28
2023-03-29T05:30:16.576Z,71.62
2023-03-29T05:32:20.889Z,71.88
2023-03-29T05:34:13.936Z,71.71
2023-03-29T05:36:16.563Z,71.53
2023-03-29T05:38:13.762Z,71.57
2023-03-29T05:40:10.277Z,71.44
2023-03-29T05:42:22.425Z,71.52
2023-03-29T05:44:20.046Z,71.48
2023-03-29T05:46:16.642Z,71.48
2023-03-29T05:48:14.444Z,71.30
2023-03-29T05:50:10.444Z,71.45
2023-03-29T05:52:04.132Z,71.41
2023-03-29T05:53:58.435Z,71.54
2023-03-29T05:55:53.643Z,71.59
2023-03-29T05:57:47.701Z,71.36
2023-03-29T05:59:40.629Z,71.22
2023-03-29T06:01:35.014Z,70.97
2023-03-29T06:03:31.486Z,70.88
2023-03-29T06:05:26.361Z,70.92
2023-03-29T06:07:27.486Z,70.48
2023-03-29T06:09:41.075Z,70.50
2023-03-29T06:11:35.002Z,70.76
2023-03-29T06:13:46.051Z,70.81
2023-03-29T06:15:39.154Z,71.06
2023-03-29T06:17:34.673Z,70.90
2023-03-29T06:19:27.602Z,70.64
2023-03-29T06:21:22.506Z,70.47
2023-03-29T06:23:15.608Z,70.52
2023-03-29T06:25:11.090Z,69.94
2023-03-29T06:27:04.410Z,68.86
2023-03-29T06:28:57.564Z,66.97
2023-03-29T06:30:51.101Z,67.12
2023-03-29T06:32:44.207Z,66.41
2023-03-29T06:34:48.601Z,65.95
2023-03-29T06:36:55.059Z,64.92
2023-03-29T06:38:48.116Z,64.15
2023-03-29T06:41:07.481Z,64.05
2023-03-29T06:43:17.426Z,64.05
2023-03-29T06:45:23.277Z,62.98
2023-03-29T06:47:20.324Z,63.08
2023-03-29T06:49:13.884Z,62.76
2023-03-29T06:51:24.443Z,62.23
2023-03-29T06:53:17.392Z,61.89
2023-03-29T06:55:16.076Z,61.78
2023-03-29T06:57:08.959Z,61.61
2023-03-29T06:59:01.981Z,61.33
2023-03-29T07:01:02.505Z,60.88
2023-03-29T07:03:23.868Z,59.67
2023-03-29T07:05:20.447Z,59.22
2023-03-29T07:07:20.730Z,59.07
2023-03-29T07:09:19.624Z,59.00
2023-03-29T07:11:31.644Z,59.12
2023-03-29T07:13:33.709Z,59.21
2023-03-29T07:15:28.882Z,59.01
2023-03-29T07:17:41.244Z,58.76
2023-03-29T07:19:37.433Z,58.38
2023-03-29T07:21:41.646Z,57.90
2023-03-29T07:23:35.014Z,58.09
2023-03-29T07:25:30.103Z,58.46
2023-03-29T07:27:24.280Z,58.51
2023-03-29T07:29:17.227Z,58.61
2023-03-29T07:31:12.223Z,58.50
2023-03-29T07:33:10.864Z,58.67
2023-03-29T07:35:09.503Z,57.35
2023-03-29T07:37:02.437Z,56.50
2023-03-29T07:38:57.267Z,55.45
2023-03-29T07:40:50.625Z,55.81
2023-03-29T07:43:11.177Z,54.53
2023-03-29T07:45:08.741Z,54.12
2023-03-29T07:47:07.317Z,52.84
2023-03-29T07:49:03.743Z,52.93
2023-03-29T07:50:57.335Z,52.26
2023-03-29T07:52:56.939Z,51.67
2023-03-29T07:54:50.063Z,51.90
2023-03-29T07:56:53.261Z,53.15
2023-03-29T07:58:50.613Z,52.57
2023-03-29T08:00:43.815Z,52.67
2023-03-29T08:03:00.941Z,51.96
2023-03-29T08:04:54.689Z,51.60
2023-03-29T08:06:56.824Z,51.36
2023-03-29T08:08:54.566Z,52.46
2023-03-29T08:10:47.510Z,51.27
2023-03-29T08:12:58.651Z,48.72
2023-03-29T08:14:56.690Z,48.62
2023-03-29T08:16:54.899Z,48.64
2023-03-29T08:18:47.876Z,49.09
2023-03-29T08:20:40.932Z,47.75
2023-03-29T08:22:34.698Z,47.36
2023-03-29T08:24:45.358Z,47.39
2023-03-29T08:26:38.722Z,47.63
2023-03-29T08:28:32.279Z,47.16
2023-03-29T08:30:26.047Z,48.16
2023-03-29T08:32:18.930Z,48.05
2023-03-29T08:34:11.724Z,47.90
2023-03-29T08:36:15.073Z,47.44
2023-03-29T08:38:10.550Z,47.22
2023-03-29T08:40:04.453Z,47.26
2023-03-29T08:42:56.963Z,46.99
2023-03-29T08:45:06.491Z,45.19
2023-03-29T08:47:16.743Z,43.81
2023-03-29T08:49:12.441Z,43.36
2023-03-29T08:51:29.878Z,43.14
2023-03-29T08:53:30.709Z,44.35
2023-03-29T08:55:43.421Z,44.51
2023-03-29T08:58:02.483Z,44.39
2023-03-29T08:59:59.786Z,44.73
2023-03-29T09:01:55.991Z,44.51
2023-03-29T09:03:58.491Z,44.30
2023-03-29T09:06:09.780Z,44.80
2023-03-29T09:08:03.370Z,44.70
2023-03-29T09:09:57.329Z,43.55
2023-03-29T09:12:18.663Z,43.93
2023-03-29T09:14:52.738Z,43.93
2023-03-29T09:17:03.953Z,43.64
2023-03-29T09:19:21.882Z,43.92
2023-03-29T09:21:44.111Z,43.14
2023-03-29T09:23:47.100Z,43.20
2023-03-29T09:25:54.138Z,43.79
2023-03-29T09:28:03.506Z,43.79
2023-03-29T09:30:32.293Z,41.06
2023-03-29T09:32:36.621Z,40.65
2023-03-29T09:34:50.447Z,42.50
2023-03-29T09:36:54.568Z,41.38
2023-03-29T09:38:51.151Z,40.78
2023-03-29T09:40:54.084Z,41.16
2023-03-29T09:42:51.607Z,41.64
2023-03-29T09:44:51.028Z,41.03
2023-03-29T09:46:56.066Z,40.92
2023-03-29T09:48:50.950Z,41.57
2023-03-29T09:50:47.614Z,41.24
2023-03-29T09:52:41.047Z,40.74
2023-03-29T09:54:40.754Z,41.28
2023-03-29T09:56:52.866Z,41.43
2023-03-29T09:58:47.335Z,42.19
2023-03-29T10:00:42.842Z,41.42
2023-03-29T10:02:36.458Z,41.38
2023-03-29T10:04:29.713Z,41.63
2023-03-29T10:06:27.016Z,41.75
2023-03-29T10:08:31.532Z,41.05
2023-03-29T10:10:32.046Z,41.71
2023-03-29T10:12:25.415Z,41.75
2023-03-29T10:14:21.521Z,40.34
2023-03-29T10:16:21.353Z,40.70
2023-03-29T10:18:14.393Z,41.26
2023-03-29T10:20:14.263Z,40.90
2023-03-29T10:22:16.580Z,40.49
2023-03-29T10:24:10.139Z,41.19
2023-03-29T10:26:06.980Z,40.28
2023-03-29T10:28:21.305Z,40.86
2023-03-29T10:30:23.977Z,40.68
2023-03-29T10:32:26.192Z,40.44
2023-03-29T10:34:25.302Z,40.77
2023-03-29T10:36:18.351Z,40.77
2023-03-29T10:38:14.998Z,40.57
2023-03-29T10:40:19.171Z,40.51
2023-03-29T10:42:16.817Z,39.97
2023-03-29T10:44:32.955Z,40.00
2023-03-29T10:46:33.707Z,41.61
2023-03-29T10:48:31.899Z,41.30
2023-03-29T10:50:27.190Z,39.47
2023-03-29T10:52:21.602Z,39.57
2023-03-29T10:54:20.409Z,38.96
2023-03-29T10:56:31.248Z,39.21
2023-03-29T10:58:35.774Z,38.86
2023-03-29T11:00:40.104Z,39.09
2023-03-29T11:03:04.446Z,38.81
2023-03-29T11:05:20.458Z,39.01
2023-03-29T11:07:31.746Z,38.64
2023-03-29T11:10:21.620Z,37.89
2023-03-29T11:12:43.652Z,41.34
2023-03-29T11:14:58.653Z,42.42
2023-03-29T11:17:23.244Z,40.46
2023-03-29T11:19:29.359Z,38.79
2023-03-29T11:21:40.746Z,38.70
2023-03-29T11:24:01.544Z,38.10
2023-03-29T11:26:19.165Z,37.65
2023-03-29T11:28:24.304Z,39.11
2023-03-29T11:30:31.279Z,38.68
2023-03-29T11:32:48.796Z,38.74
2023-03-29T11:35:01.626Z,38.50
2023-03-29T11:36:59.075Z,38.17
2023-03-29T11:39:31.065Z,38.74
2023-03-29T11:41:33.273Z,39.05
2023-03-29T11:43:42.948Z,38.71
2023-03-29T11:45:41.929Z,39.26
2023-03-29T11:47:40.935Z,38.23
2023-03-29T11:49:45.759Z,38.86
2023-03-29T11:51:46.371Z,39.34
2023-03-29T11:53:59.400Z,38.95
2023-03-29T11:55:55.404Z,38.71
2023-03-29T11:57:56.661Z,38.80
2023-03-29T12:00:22.369Z,38.71
2023-03-29T12:02:29.112Z,39.08
2023-03-29T12:04:32.425Z,39.26
2023-03-29T12:06:37.874Z,39.56
2023-03-29T12:09:03.998Z,39.23
2023-03-29T12:11:19.580Z,39.40
2023-03-29T12:13:22.699Z,39.59
2023-03-29T12:15:20.527Z,39.46
2023-03-29T12:17:20.456Z,40.04
2023-03-29T12:19:23.441Z,40.14
2023-03-29T12:21:20.988Z,40.14
2023-03-29T12:23:16.384Z,40.37
2023-03-29T12:25:18.178Z,40.00
2023-03-29T12:27:35.272Z,39.71
2023-03-29T12:29:50.172Z,39.84
2023-03-29T12:32:04.352Z,39.80
2023-03-29T12:34:14.562Z,39.17
2023-03-29T12:36:32.470Z,38.97
2023-03-29T12:38:48.594Z,40.26
2023-03-29T12:41:11.549Z,39.19
2023-03-29T12:43:33.762Z,40.56
2023-03-29T12:45:51.341Z,39.68
2023-03-29T12:47:46.631Z,38.52
2023-03-29T12:49:42.648Z,38.43
2023-03-29T12:51:39.930Z,38.73
2023-03-29T12:53:43.026Z,38.30
2023-03-29T12:55:42.553Z,38.72
2023-03-29T12:57:44.294Z,39.28
2023-03-29T12:59:40.083Z,38.86
2023-03-29T13:01:41.472Z,38.66
2023-03-29T13:04:14.880Z,39.46
2023-03-29T13:06:10.764Z,39.67
2023-03-29T13:08:44.179Z,38.62
2023-03-29T13:10:41.957Z,39.18
2023-03-29T13:12:34.711Z,39.34
2023-03-29T13:14:32.003Z,39.50
2023-03-29T13:16:36.134Z,39.95
2023-03-29T13:18:34.079Z,39.27
2023-03-29T13:20:48.833Z,39.64
2023-03-29T13:23:37.746Z,39.21
2023-03-29T13:26:09.758Z,39.91
2023-03-29T13:28:17.585Z,39.54
2023-03-29T13:30:32.419Z,39.57
2023-03-29T13:32:47.213Z,39.07
2023-03-29T13:34:48.754Z,39.19
2023-03-29T13:37:01.860Z,39.34
2023-03-29T13:38:56.286Z,40.23
2023-03-29T13:40:53.119Z,39.94
2023-03-29T13:42:57.662Z,39.95
2023-03-29T13:45:15.107Z,40.33
2023-03-29T13:47:26.640Z,40.18
2023-03-29T13:49:39.510Z,40.09
2023-03-29T13:51:42.292Z,40.51
2023-03-29T13:53:40.259Z,40.62
2023-03-29T13:55:42.417Z,40.50
2023-03-29T13:57:40.872Z,40.92
2023-03-29T13:59:37.574Z,40.79
2023-03-29T14:01:45.891Z,40.41
2023-03-29T14:03:45.745Z,40.49
2023-03-29T14:05:41.854Z,40.90
2023-03-29T14:07:39.631Z,40.75
2023-03-29T14:09:36.137Z,40.52
2023-03-29T14:11:30.660Z,41.03
2023-03-29T14:13:25.566Z,40.90
2023-03-29T14:15:25.767Z,41.53
2023-03-29T14:20:50.173Z,41.43
2023-03-29T14:22:49.684Z,41.75
2023-03-29T14:25:05.945Z,41.53
2023-03-29T14:27:03.004Z,41.46
2023-03-29T14:29:19.048Z,41.76
2023-03-29T14:31:19.961Z,41.39
2023-03-29T14:33:32.698Z,41.57
2023-03-29T14:35:32.472Z,42.29
2023-03-29T14:37:28.680Z,41.94
2023-03-29T14:39:23.379Z,42.32
2023-03-29T14:41:16.673Z,42.51
2023-03-29T14:43:11.211Z,42.43
2023-03-29T14:45:06.426Z,42.71
2023-03-29T14:47:01.707Z,42.80
2023-03-29T14:48:56.498Z,42.58
2023-03-29T14:50:49.968Z,42.81
2023-03-29T14:52:44.990Z,42.99
2023-03-29T14:54:43.548Z,43.25
2023-03-29T14:56:36.898Z,42.75
2023-03-29T14:58:34.153Z,42.47
2023-03-29T15:00:31.498Z,42.50
2023-03-29T15:02:27.919Z,42.48
2023-03-29T15:04:21.285Z,42.72
2023-03-29T15:06:14.239Z,43.06
2023-03-29T15:08:13.447Z,43.51
2023-03-29T15:10:07.854Z,43.29
2023-03-29T15:12:03.649Z,43.49
2023-03-29T15:14:17.167Z,43.57
2023-03-29T15:16:14.457Z,44.12
2023-03-29T15:18:13.728Z,44.42
2023-03-29T15:20:18.648Z,44.85
2023-03-29T15:22:11.889Z,45.48
2023-03-29T15:24:05.964Z,45.02
2023-03-29T15:26:10.667Z,45.02
2023-03-29T15:28:04.458Z,45.31
2023-03-29T15:30:04.374Z,45.60
2023-03-29T15:31:59.209Z,46.20
2023-03-29T15:34:09.096Z,46.32
2023-03-29T15:36:05.868Z,46.50
2023-03-29T15:37:59.745Z,46.61
2023-03-29T15:39:53.579Z,47.07
2023-03-29T15:41:52.625Z,47.01
2023-03-29T15:43:46.339Z,47.22
2023-03-29T15:45:39.330Z,47.01
2023-03-29T15:47:32.269Z,47.54
2023-03-29T15:49:26.449Z,47.67
2023-03-29T15:51:19.460Z,47.48
2023-03-29T15:53:15.805Z,47.44
2023-03-29T15:55:09.663Z,47.64
2023-03-29T15:57:06.673Z,47.73
2023-03-29T15:58:59.648Z,47.62
2023-03-29T16:01:37.505Z,47.81
2023-03-29T16:03:30.704Z,47.71
2023-03-29T16:05:23.655Z,48.00
2023-03-29T16:07:18.526Z,48.08
2023-03-29T16:09:14.006Z,47.79
2023-03-29T16:11:06.903Z,47.01
2023-03-29T16:12:59.745Z,46.95
2023-03-29T16:14:52.706Z,46.78
2023-03-29T16:16:46.080Z,46.95
2023-03-29T16:18:39.111Z,47.08
2023-03-29T16:20:32.823Z,47.29
2023-03-29T16:22:26.331Z,47.16
2023-03-29T16:24:24.152Z,47.04
2023-03-29T16:26:17.278Z,46.71
2023-03-29T16:28:10.287Z,46.29
2023-03-29T16:30:03.514Z,46.63
2023-03-29T16:31:56.943Z,46.48
2023-03-29T16:33:50.060Z,46.29
2023-03-29T16:35:43.270Z,46.42
2023-03-29T16:37:36.569Z,46.63
2023-03-29T16:39:29.522Z,46.67
2023-03-29T16:41:23.280Z,46.73
2023-03-29T16:43:17.607Z,46.81
2023-03-29T16:45:17.578Z,46.85
2023-03-29T16:47:12.252Z,47.27
2023-03-29T16:49:07.890Z,47.37
2023-03-29T16:51:00.938Z,47.49
2023-03-29T16:52:54.288Z,47.56
2023-03-29T16:54:47.231Z,47.76
2023-03-29T16:56:40.667Z,47.86
2023-03-29T16:58:34.770Z,47.90
2023-03-29T17:00:27.837Z,48.01
2023-03-29T17:02:21.585Z,48.31
2023-03-29T17:04:15.691Z,48.53
2023-03-29T17:06:11.297Z,48.56
2023-03-29T17:08:05.118Z,48.71
2023-03-29T17:09:58.597Z,48.69
2023-03-29T17:11:51.568Z,48.97
2023-03-29T17:13:45.013Z,49.13
2023-03-29T17:15:39.727Z,49.43
2023-03-29T17:17:34.520Z,49.83
2023-03-29T17:19:27.741Z,50.07
2023-03-29T17:21:21.507Z,50.10
2023-03-29T17:23:14.872Z,50.46
2023-03-29T17:25:08.947Z,50.63
2023-03-29T17:27:01.997Z,50.81
2023-03-29T17:28:54.940Z,50.95
2023-03-29T17:30:48.033Z,50.94
2023-03-29T17:32:41.632Z,51.19
2023-03-29T17:34:34.912Z,51.43
2023-03-29T17:36:29.018Z,51.36
2023-03-29T17:38:22.913Z,51.74
2023-03-29T17:40:18.208Z,51.74
2023-03-29T17:42:11.823Z,51.72
2023-03-29T17:44:05.796Z,52.02
2023-03-29T17:45:58.947Z,52.11
2023-03-29T17:47:52.160Z,52.36
2023-03-29T17:49:45.568Z,52.46
2023-03-29T17:51:38.408Z,52.50
2023-03-29T17:53:31.462Z,52.79
2023-03-29T17:55:24.512Z,52.88
2023-03-29T17:57:19.391Z,52.95
2023-03-29T17:59:12.580Z,52.98
2023-03-29T18:01:14.788Z,53.23
2023-03-29T18:03:08.525Z,53.41
2023-03-29T18:05:02.156Z,53.56
2023-03-29T18:06:55.566Z,53.62
2023-03-29T18:08:51.020Z,53.94
2023-03-29T18:10:44.586Z,54.06
2023-03-29T18:12:37.938Z,54.15
2023-03-29T18:14:31.742Z,54.27
2023-03-29T18:16:26.430Z,54.37
2023-03-29T18:18:19.782Z,54.51
2023-03-29T18:20:17.313Z,54.71
2023-03-29T18:22:13.129Z,54.68
2023-03-29T18:24:06.412Z,54.93
2023-03-29T18:26:06.754Z,55.29
2023-03-29T18:28:01.450Z,55.44
2023-03-29T18:29:56.736Z,55.62
2023-03-29T18:31:50.837Z,55.75
2023-03-29T18:33:44.705Z,55.81
2023-03-29T18:35:39.379Z,56.01
2023-03-29T18:37:32.550Z,56.12
2023-03-29T18:39:25.947Z,56.15
2023-03-29T18:41:19.815Z,56.03
2023-03-29T18:43:12.762Z,56.13
2023-03-29T18:45:06.100Z,56.23
2023-03-29T18:46:58.969Z,56.36
2023-03-29T18:48:53.565Z,56.49
2023-03-29T18:50:47.071Z,56.75
2023-03-29T18:52:40.168Z,56.60
2023-03-29T18:54:33.428Z,56.76
2023-03-29T18:56:28.010Z,56.72
2023-03-29T18:58:24.080Z,56.80
2023-03-29T19:00:17.721Z,56.84
2023-03-29T19:02:11.133Z,56.89
2023-03-29T19:04:04.614Z,57.11
2023-03-29T19:05:58.493Z,57.01
2023-03-29T19:07:51.738Z,57.10
2023-03-29T19:09:45.414Z,57.35
2023-03-29T19:11:38.209Z,57.45
2023-03-29T19:13:31.403Z,57.55
2023-03-29T19:15:25.310Z,57.62
2023-03-29T19:17:18.324Z,57.75
2023-03-29T19:19:11.387Z,57.83
2023-03-29T19:21:04.327Z,58.04
2023-03-29T19:22:57.271Z,58.21
2023-03-29T19:24:50.221Z,58.14
2023-03-29T19:26:44.513Z,58.28
2023-03-29T19:28:37.411Z,58.37
2023-03-29T19:30:31.425Z,58.51
2023-03-29T19:32:24.381Z,58.68
2023-03-29T19:34:19.783Z,58.71
2023-03-29T19:36:12.773Z,59.02
2023-03-29T19:38:05.772Z,59.22
2023-03-29T19:39:58.860Z,59.09
2023-03-29T19:41:51.767Z,59.28
2023-03-29T19:43:44.619Z,59.49
2023-03-29T19:45:37.457Z,59.44
2023-03-29T19:47:30.735Z,59.63
2023-03-29T19:49:23.557Z,59.84
2023-03-29T19:51:16.822Z,60.02
2023-03-29T19:53:10.885Z,60.00
2023-03-29T19:55:04.246Z,60.14
2023-03-29T19:56:57.493Z,60.14
2023-03-29T19:58:51.172Z,60.28
2023-03-29T20:00:44.109Z,60.35
2023-03-29T20:02:36.985Z,60.39
2023-03-29T20:04:33.366Z,60.42
2023-03-29T20:06:26.640Z,60.44
2023-03-29T20:08:19.488Z,60.48
2023-03-29T20:10:12.547Z,60.52
2023-03-29T20:12:05.492Z,60.69
2023-03-29T20:13:58.537Z,60.84
2023-03-29T20:15:51.791Z,60.84
2023-03-29T20:17:45.066Z,60.88
2023-03-29T20:19:37.894Z,60.99
2023-03-29T20:21:33.731Z,60.97
2023-03-29T20:23:26.874Z,61.07
2023-03-29T20:25:21.326Z,61.25
2023-03-29T20:27:16.037Z,61.30
2023-03-29T20:29:08.893Z,61.39
2023-03-29T20:31:06.938Z,61.39
2023-03-29T20:32:59.841Z,61.53
2023-03-29T20:34:56.252Z,61.60
2023-03-29T20:36:55.664Z,61.79
2023-03-29T20:38:50.431Z,61.86
2023-03-29T20:40:45.374Z,62.02
2023-03-29T20:42:39.855Z,62.10
2023-03-29T20:44:35.336Z,62.13
2023-03-29T20:46:35.928Z,62.15
2023-03-29T20:48:32.686Z,62.24
2023-03-29T20:50:30.673Z,62.35
2023-03-29T20:52:24.714Z,62.32
2023-03-29T20:54:18.386Z,62.37
2023-03-29T20:56:13.912Z,62.46
2023-03-29T20:58:08.441Z,62.47
2023-03-29T21:00:03.116Z,62.45
2023-03-29T21:02:00.491Z,62.64
2023-03-29T21:03:54.120Z,62.57
2023-03-29T21:05:47.128Z,62.67
2023-03-29T21:07:40.072Z,62.49
2023-03-29T21:09:34.341Z,62.58
2023-03-29T21:11:27.822Z,62.60
2023-03-29T21:13:20.965Z,62.72
2023-03-29T21:15:14.261Z,62.60
2023-03-29T21:17:09.484Z,62.70
2023-03-29T21:19:02.508Z,62.69
2023-03-29T21:20:55.419Z,62.65
2023-03-29T21:22:48.378Z,62.89
2023-03-29T21:24:41.538Z,62.93
2023-03-29T21:26:37.458Z,62.73
2023-03-29T21:28:31.164Z,62.96
2023-03-29T21:30:24.152Z,64.43
2023-03-29T21:32:17.099Z,67.93
2023-03-29T21:34:10.208Z,68.68
2023-03-29T21:36:03.996Z,64.35
2023-03-29T21:37:58.048Z,63.07
2023-03-29T21:42:15.633Z,62.36
2023-03-29T21:44:08.586Z,62.43
2023-03-29T21:46:01.984Z,62.61
2023-03-29T21:47:55.732Z,62.59
2023-03-29T21:49:48.856Z,62.70
2023-03-29T21:51:41.704Z,62.76
2023-03-29T21:53:35.371Z,62.88
2023-03-29T21:55:28.424Z,63.05
2023-03-29T21:57:21.431Z,63.02
2023-03-29T21:59:14.530Z,63.31
2023-03-29T22:01:10.229Z,63.39
2023-03-29T22:03:03.376Z,63.29
2023-03-29T22:04:56.851Z,63.63
2023-03-29T22:06:49.675Z,63.71
2023-03-29T22:08:42.543Z,63.62
2023-03-29T22:10:37.989Z,63.77
2023-03-29T22:12:37.918Z,63.82
2023-03-29T22:14:35.173Z,63.87
2023-03-29T22:16:28.626Z,63.91
2023-03-29T22:18:22.007Z,64.24
2023-03-29T22:20:15.369Z,64.07
2023-03-29T22:22:13.781Z,64.10
2023-03-29T22:24:07.430Z,64.12
2023-03-29T22:26:05.186Z,64.25
2023-03-29T22:27:58.030Z,64.30
2023-03-29T22:29:50.876Z,64.41
2023-03-29T22:31:43.963Z,64.39
2023-03-29T22:33:37.796Z,64.56
2023-03-29T22:35:30.778Z,64.53
2023-03-29T22:37:24.110Z,64.62
2023-03-29T22:39:17.356Z,64.78
2023-03-29T22:41:10.516Z,64.83
2023-03-29T22:43:05.277Z,65.00
2023-03-29T22:44:58.381Z,65.04
2023-03-29T22:46:51.717Z,65.03
2023-03-29T22:48:45.581Z,65.11
2023-03-29T22:50:38.733Z,65.13
2023-03-29T22:52:31.598Z,65.24
2023-03-29T22:54:24.555Z,65.33
2023-03-29T22:56:17.794Z,65.44
2023-03-29T22:58:10.838Z,65.48
2023-03-29T23:00:09.270Z,65.35
2023-03-29T23:02:02.391Z,65.60
2023-03-29T23:03:55.540Z,65.72
2023-03-29T23:05:52.655Z,65.53
2023-03-29T23:07:45.606Z,65.83
2023-03-29T23:09:38.452Z,65.80
2023-03-29T23:11:31.715Z,65.81
2023-03-29T23:13:26.087Z,65.70
2023-03-29T23:15:22.873Z,65.86
2023-03-29T23:17:19.397Z,65.83
2023-03-29T23:19:12.314Z,65.87
2023-03-29T23:21:06.074Z,65.67
2023-03-29T23:23:00.151Z,65.68
2023-03-29T23:24:53.511Z,65.72
2023-03-29T23:26:49.137Z,65.54
2023-03-29T23:28:42.481Z,65.82
2023-03-29T23:30:38.608Z,66.44
2023-03-29T23:32:31.617Z,66.99
2023-03-29T23:34:24.703Z,67.31
2023-03-29T23:36:19.190Z,67.64
2023-03-29T23:38:12.133Z,67.42
2023-03-29T23:40:11.816Z,67.89
2023-03-29T23:42:04.784Z,68.07
2023-03-29T23:43:57.849Z,68.19
2023-03-29T23:45:59.696Z,68.27
2023-03-29T23:47:53.472Z,68.41
2023-03-29T23:49:47.030Z,68.52
2023-03-29T23:51:42.746Z,68.67
2023-03-29T23:53:36.196Z,68.81
2023-03-29T23:55:29.154Z,68.59
2023-03-29T23:57:22.050Z,68.26
2023-03-29T23:59:14.935Z,67.97
